createdAt,value
2018-06-10T00:04:10.808Z,1008.8
2018-06-10T00:09:10.617Z,1008.8
2018-06-10T00:14:10.435Z,1008.6
2018-06-10T00:19:10.352Z,1008.6
2018-06-10T00:24:10.126Z,1008.6
2018-06-10T00:29:09.949Z,1008.6
2018-06-10T00:34:10.795Z,1008.6
2018-06-10T00:39:10.565Z,1008.6
2018-06-10T00:44:10.206Z,1008.5
2018-06-10T00:49:10.064Z,1008.5
2018-06-10T00:54:10.805Z,1008.4
2018-06-10T00:59:10.579Z,1008.4
2018-06-10T01:04:10.368Z,1008.4
2018-06-10T01:09:10.565Z,1008.4
2018-06-10T01:14:10.298Z,1008.3
2018-06-10T01:19:10.028Z,1008.3
2018-06-10T01:24:10.941Z,1008.4
2018-06-10T01:29:10.640Z,1008.4
2018-06-10T01:34:10.478Z,1008.4
2018-06-10T01:39:10.301Z,1008.4
2018-06-10T01:44:10.065Z,1008.4
2018-06-10T01:49:10.736Z,1008.4
2018-06-10T01:54:10.503Z,1008.4
2018-06-10T01:59:10.170Z,1008.4
2018-06-10T02:04:09.978Z,1008.4
2018-06-10T02:09:10.752Z,1008.4
2018-06-10T02:14:10.554Z,1008.3
2018-06-10T02:19:10.444Z,1008.3
2018-06-10T02:24:10.321Z,1008.1
2018-06-10T02:29:10.077Z,1008.1
2018-06-10T02:34:10.874Z,1008.1
2018-06-10T02:39:10.462Z,1008.1
2018-06-10T02:44:10.077Z,1008
2018-06-10T02:49:10.853Z,1008
2018-06-10T02:54:10.625Z,1007.9
2018-06-10T02:59:10.381Z,1007.9
2018-06-10T03:04:10.187Z,1007.9
2018-06-10T03:09:10.081Z,1007.9
2018-06-10T03:14:09.941Z,1007.9
2018-06-10T03:19:10.771Z,1007.9
2018-06-10T03:24:10.615Z,1007.9
2018-06-10T03:29:10.388Z,1007.9
2018-06-10T03:34:10.225Z,1007.8
2018-06-10T03:39:10.850Z,1007.8
2018-06-10T03:44:10.533Z,1007.7
2018-06-10T03:49:10.281Z,1007.7
2018-06-10T03:54:10.048Z,1007.6
2018-06-10T03:59:10.829Z,1007.6
2018-06-10T04:04:10.587Z,1007.6
2018-06-10T04:09:10.564Z,1007.6
2018-06-10T04:14:10.292Z,1007.4
2018-06-10T04:19:10.189Z,1007.4
2018-06-10T04:24:10.985Z,1007.4
2018-06-10T04:29:10.997Z,1007.4
2018-06-10T04:34:10.142Z,1007.4
2018-06-10T04:39:10.840Z,1007.4
2018-06-10T04:44:10.530Z,1007.4
2018-06-10T04:49:10.297Z,1007.4
2018-06-10T04:54:10.923Z,1007.3
2018-06-10T04:59:10.687Z,1007.3
2018-06-10T05:04:10.778Z,1007.3
2018-06-10T05:09:10.403Z,1007.3
2018-06-10T05:14:10.124Z,1007.3
2018-06-10T05:19:11.046Z,1007.3
2018-06-10T05:24:10.735Z,1007.3
2018-06-10T05:29:10.360Z,1007.3
2018-06-10T05:34:11.051Z,1007.2
2018-06-10T05:39:10.963Z,1007.2
2018-06-10T05:44:10.769Z,1007.3
2018-06-10T05:49:10.577Z,1007.3
2018-06-10T05:54:10.247Z,1007.3
2018-06-10T05:59:11.104Z,1007.3
2018-06-10T06:04:10.683Z,1007.3
2018-06-10T06:09:10.679Z,1007.3
2018-06-10T06:14:10.506Z,1007.6
2018-06-10T06:19:10.261Z,1007.6
2018-06-10T06:24:10.939Z,1007.6
2018-06-10T06:29:10.793Z,1007.6
2018-06-10T06:34:10.578Z,1007.6
2018-06-10T06:39:10.218Z,1007.6
2018-06-10T06:44:10.943Z,1007.7
2018-06-10T06:49:10.860Z,1007.7
2018-06-10T06:54:10.581Z,1007.6
2018-06-10T06:59:10.299Z,1007.6
2018-06-10T07:04:10.364Z,1007.6
2018-06-10T07:09:10.450Z,1007.6
2018-06-10T07:14:10.295Z,1007.7
2018-06-10T07:19:11.161Z,1007.7
2018-06-10T07:24:10.835Z,1007.7
2018-06-10T07:29:10.608Z,1007.7
2018-06-10T07:34:10.429Z,1007.6
2018-06-10T07:39:11.131Z,1007.6
2018-06-10T07:44:10.969Z,1007.5
2018-06-10T07:49:10.703Z,1007.5
2018-06-10T07:54:10.473Z,1007.4
2018-06-10T07:59:11.146Z,1007.4
2018-06-10T08:04:11.052Z,1007.4
2018-06-10T08:09:10.716Z,1007.4
2018-06-10T08:14:10.427Z,1007.1
2018-06-10T08:19:11.352Z,1007.1
2018-06-10T08:24:11.112Z,1007.1
2018-06-10T08:29:10.840Z,1007.1
2018-06-10T08:34:10.675Z,1007.1
2018-06-10T08:39:10.393Z,1007.1
2018-06-10T08:44:11.123Z,1007.1
2018-06-10T08:49:11.060Z,1007.1
2018-06-10T08:54:10.818Z,1007.4
2018-06-10T08:59:10.535Z,1007.4
2018-06-10T09:04:11.366Z,1007.5
2018-06-10T09:09:11.354Z,1007.5
2018-06-10T09:14:11.041Z,1007.7
2018-06-10T09:19:10.711Z,1007.7
2018-06-10T09:24:10.437Z,1007.7
2018-06-10T09:29:11.250Z,1007.7
2018-06-10T09:34:11.034Z,1007.7
2018-06-10T09:39:10.936Z,1007.7
2018-06-10T09:44:10.662Z,1008.2
2018-06-10T09:49:11.377Z,1008.2
2018-06-10T09:54:11.116Z,1008.2
2018-06-10T09:59:10.905Z,1008.2
2018-06-10T10:04:10.856Z,1008.2
2018-06-10T10:09:10.966Z,1008.2
2018-06-10T10:14:10.763Z,1008.2
2018-06-10T10:19:10.544Z,1008.2
2018-06-10T10:24:11.164Z,1008.3
2018-06-10T10:29:10.935Z,1008.3
2018-06-10T10:34:10.686Z,1008.3
2018-06-10T10:39:11.395Z,1008.3
2018-06-10T10:44:11.035Z,1008.3
2018-06-10T10:49:11.209Z,1008.3
2018-06-10T10:54:11.034Z,1008.3
2018-06-10T10:59:10.719Z,1008.3
2018-06-10T11:04:11.465Z,1008.3
2018-06-10T11:09:11.358Z,1008.3
2018-06-10T11:14:11.350Z,1008.5
2018-06-10T11:19:11.122Z,1008.5
2018-06-10T11:24:10.930Z,1008.5
2018-06-10T11:29:10.580Z,1008.5
2018-06-10T11:34:11.388Z,1008.5
2018-06-10T11:39:11.157Z,1008.5
2018-06-10T11:44:10.858Z,1008.4
2018-06-10T11:49:11.541Z,1008.4
2018-06-10T11:54:11.288Z,1008.3
2018-06-10T11:59:10.949Z,1008.3
2018-06-10T12:04:10.792Z,1008.3
2018-06-10T12:09:11.649Z,1008.3
2018-06-10T12:14:11.077Z,1008.1
2018-06-10T12:19:10.939Z,1008.1
2018-06-10T12:24:10.586Z,1007.9
2018-06-10T12:29:11.318Z,1007.9
2018-06-10T12:34:11.166Z,1007.8
2018-06-10T12:39:10.849Z,1007.8
2018-06-10T12:44:11.542Z,1007.7
2018-06-10T12:49:11.558Z,1007.7
2018-06-10T12:54:11.302Z,1007.6
2018-06-10T12:59:11.085Z,1007.6
2018-06-10T13:04:11.180Z,1007.6
2018-06-10T13:09:10.929Z,1007.6
2018-06-10T13:14:11.507Z,1007.2
2018-06-10T13:19:11.368Z,1007.2
2018-06-10T13:24:10.988Z,1007.1
2018-06-10T13:29:10.746Z,1007.1
2018-06-10T13:34:11.630Z,1007.1
2018-06-10T13:39:11.453Z,1007.1
2018-06-10T13:44:11.125Z,1007.3
2018-06-10T13:49:10.940Z,1007.3
2018-06-10T13:54:10.925Z,1007.5
2018-06-10T13:59:11.593Z,1007.5
2018-06-10T14:04:11.319Z,1007.5
2018-06-10T14:09:11.210Z,1007.5
2018-06-10T14:14:10.904Z,1007.6
2018-06-10T14:19:11.655Z,1007.6
2018-06-10T14:24:11.426Z,1007.6
2018-06-10T14:29:11.193Z,1007.6
2018-06-10T14:34:11.002Z,1007.7
2018-06-10T14:39:10.768Z,1007.7
2018-06-10T14:44:11.498Z,1007.7
2018-06-10T14:49:11.236Z,1007.7
2018-06-10T14:54:11.052Z,1007.6
2018-06-10T14:59:11.837Z,1007.6
2018-06-10T15:04:11.703Z,1007.6
2018-06-10T15:09:11.589Z,1007.6
2018-06-10T15:14:11.165Z,1007.7
2018-06-10T15:19:10.955Z,1007.7
2018-06-10T15:24:10.792Z,1007.8
2018-06-10T15:29:11.544Z,1007.8
2018-06-10T15:34:11.470Z,1007.8
2018-06-10T15:39:11.256Z,1007.8
2018-06-10T15:44:11.074Z,1007.7
2018-06-10T15:49:11.810Z,1007.7
2018-06-10T15:54:11.515Z,1008
2018-06-10T15:59:11.302Z,1008
2018-06-10T16:04:11.238Z,1008.1
2018-06-10T16:09:10.968Z,1008.1
2018-06-10T16:14:11.762Z,1008.2
2018-06-10T16:19:11.538Z,1008.2
2018-06-10T16:24:11.244Z,1008.1
2018-06-10T16:29:10.892Z,1008.1
2018-06-10T16:34:11.606Z,1008.1
2018-06-10T16:39:11.469Z,1008.1
2018-06-10T16:44:11.281Z,1008.2
2018-06-10T16:49:11.042Z,1008.2
2018-06-10T16:54:11.768Z,1008.1
2018-06-10T16:59:11.389Z,1008.1
2018-06-10T17:04:11.254Z,1008.1
2018-06-10T17:09:11.092Z,1008.1
2018-06-10T17:14:11.441Z,1008.2
2018-06-10T17:19:11.183Z,1008.2
2018-06-10T17:24:11.932Z,1008.2
2018-06-10T17:29:11.622Z,1008.2
2018-06-10T17:34:11.401Z,1008.2
2018-06-10T17:39:11.019Z,1008.2
2018-06-10T17:44:11.726Z,1008.2
2018-06-10T17:49:11.471Z,1008.2
2018-06-10T17:54:11.229Z,1008.2
2018-06-10T17:59:11.931Z,1008.2
2018-06-10T18:04:11.782Z,1008.2
2018-06-10T18:09:11.471Z,1008.2
2018-06-10T18:14:11.766Z,1008.2
2018-06-10T18:19:11.664Z,1008.2
2018-06-10T18:24:11.526Z,1008
2018-06-10T18:29:11.380Z,1008
2018-06-10T18:34:11.227Z,1007.9
2018-06-10T18:39:12.003Z,1007.9
2018-06-10T18:44:11.909Z,1007.9
2018-06-10T18:49:11.985Z,1007.9
2018-06-10T18:54:11.662Z,1008
2018-06-10T18:59:11.500Z,1008
2018-06-10T19:04:11.312Z,1008
2018-06-10T19:09:12.240Z,1008
2018-06-10T19:14:11.275Z,1008.2
2018-06-10T19:19:11.998Z,1008.2
2018-06-10T19:24:11.810Z,1008.3
2018-06-10T19:29:11.515Z,1008.3
2018-06-10T19:34:11.241Z,1008.3
2018-06-10T19:39:12.185Z,1008.3
2018-06-10T19:44:11.967Z,1008.3
2018-06-10T19:49:11.714Z,1008.3
2018-06-10T19:54:11.480Z,1008.4
2018-06-10T19:59:11.192Z,1008.4
2018-06-10T20:04:12.132Z,1008.4
2018-06-10T20:09:11.945Z,1008.4
2018-06-10T20:14:11.987Z,1008.5
2018-06-10T20:19:11.703Z,1008.5
2018-06-10T20:24:11.445Z,1008.6
2018-06-10T20:29:11.221Z,1008.6
2018-06-10T20:34:11.949Z,1008.8
2018-06-10T20:39:11.996Z,1008.8
2018-06-10T20:44:11.872Z,1008.8
2018-06-10T20:49:11.641Z,1008.8
2018-06-10T20:54:11.351Z,1008.9
2018-06-10T20:59:12.023Z,1008.9
2018-06-10T21:04:11.728Z,1008.9
2018-06-10T21:09:11.385Z,1008.9
2018-06-10T21:14:12.110Z,1009.2
2018-06-10T21:19:11.853Z,1009.2
2018-06-10T21:24:11.531Z,1009.4
2018-06-10T21:29:12.272Z,1009.4
2018-06-10T21:34:11.974Z,1009.4
2018-06-10T21:39:11.753Z,1009.4
2018-06-10T21:44:11.517Z,1009.4
2018-06-10T21:49:12.379Z,1009.4
2018-06-10T21:54:12.250Z,1009.4
2018-06-10T21:59:12.043Z,1009.4
2018-06-10T22:04:12.269Z,1009.4
2018-06-10T22:09:12.116Z,1009.4
2018-06-10T22:14:12.023Z,1009.5
2018-06-10T22:19:12.023Z,1009.5
2018-06-10T22:24:11.677Z,1009.4
2018-06-10T22:29:11.332Z,1009.4
2018-06-10T22:34:12.019Z,1009.4
2018-06-10T22:39:11.847Z,1009.4
2018-06-10T22:44:11.543Z,1009.3
2018-06-10T22:49:11.382Z,1009.3
2018-06-10T22:54:12.148Z,1009.4
2018-06-10T22:59:11.813Z,1009.4
2018-06-10T23:04:11.677Z,1009.4
2018-06-10T23:09:11.486Z,1009.4
2018-06-10T23:14:11.972Z,1009.5
2018-06-10T23:19:11.705Z,1009.5
2018-06-10T23:24:12.402Z,1009.5
2018-06-10T23:29:12.170Z,1009.5
2018-06-10T23:34:11.902Z,1009.5
2018-06-10T23:39:11.524Z,1009.5
2018-06-10T23:44:12.251Z,1009.5
2018-06-10T23:49:11.974Z,1009.5
2018-06-10T23:54:11.630Z,1009.5
2018-06-10T23:59:12.343Z,1009.5
